Time;durP1;ratioP1;P1;durP2;ratioP2;P2;SDS_P1;SDS_P2;PMS_P1;PMS_P2;Temp;Humidity;BMP_temperature;BMP_pressure;BME280_temperature;BME280_humidity;BME280_pressure;Samples;Min_cycle;Max_cycle;Signal;HPM_P1;HPM_P2
2023/07/04 00:02:22;;;;;;;;;;;;;;;15.76;66.95;96306.38;6247102;28;20310;-70
2023/07/04 00:05:25;;;;;;;;;;;;;;;15.76;66.67;96305.56;6229489;28;19921;-69
2023/07/04 00:08:26;;;;;;;;;;;;;;;15.74;66.46;96310.16;6246978;28;19932;-69
2023/07/04 00:11:32;;;;;;;;;;;;;;;15.71;66.56;96303.38;6246805;28;19921;-69
2023/07/04 00:14:32;;;;;;;;;;;;;;;15.69;66.50;96300.84;6245692;28;19920;-69
2023/07/04 00:17:36;;;;;;;;;;;;;;;15.68;66.47;96307.13;6245693;28;19944;-70
2023/07/04 00:20:40;;;;;;;;;;;;;;;15.68;66.54;96317.75;6246795;28;19925;-69
2023/07/04 00:23:45;;;;;;;;;;;;;;;15.69;66.39;96321.22;6228466;28;20461;-69
2023/07/04 00:26:47;;;;;;;;;;;;;;;15.71;66.38;96319.28;6246840;28;19921;-69
2023/07/04 00:29:52;;;;;;;;;;;;;;;15.77;65.71;96325.78;6246727;28;20023;-69
2023/07/04 00:32:58;;;;;;;;;;;;;;;15.86;65.77;96320.47;6246529;28;19924;-69
2023/07/04 00:36:05;;;;;;;;;;;;;;;15.98;65.11;96321.09;6245354;28;20067;-70
2023/07/04 00:39:06;;;;;;;;;;;;;;;16.09;64.91;96328.88;6246233;28;20409;-69
2023/07/04 00:42:09;;;;;;;;;;;;;;;16.21;64.88;96328.69;6246105;28;19925;-70
2023/07/04 00:45:20;;;;;;;;;;;;;;;16.27;64.93;96325.44;6246120;28;19921;-69
2023/07/04 00:48:23;;;;;;;;;;;;;;;16.37;64.16;96337.69;6245776;28;20008;-68
2023/07/04 00:51:24;;;;;;;;;;;;;;;16.54;63.87;96337.88;6245123;28;19935;-71
2023/07/04 00:54:34;;;;;;;;;;;;;;;16.65;63.80;96344.78;6246146;28;20014;-70
2023/07/04 00:57:38;;;;;;;;;;;;;;;16.70;63.41;96353.13;6245891;28;19921;-70
2023/07/04 01:00:43;;;;;;;;;;;;;;;16.74;63.57;96349.19;6245742;28;20015;-68
2023/07/04 01:03:46;;;;;;;;;;;;;;;16.84;63.21;96357.94;6245791;28;20031;-68
2023/07/04 01:06:55;;;;;;;;;;;;;;;16.89;63.63;96357.50;6245723;28;19932;-70
2023/07/04 01:10:02;;;;;;;;;;;;;;;16.91;63.69;96344.91;6245748;28;20302;-70
2023/07/04 01:13:27;;;;;;;;;;;;;;;16.98;63.22;96354.75;6245500;28;20430;-70
2023/07/04 01:16:31;;;;;;;;;;;;;;;17.05;63.15;96358.50;6245597;28;19960;-70
2023/07/04 01:19:35;;;;;;;;;;;;;;;17.20;62.89;96360.63;6244865;28;19921;-70
2023/07/04 01:22:55;;;;;;;;;;;;;;;17.27;62.73;96367.00;6245589;28;20023;-70
2023/07/04 01:25:59;;;;;;;;;;;;;;;17.36;62.45;96366.06;6245485;28;19921;-69
2023/07/04 01:29:05;;;;;;;;;;;;;;;17.56;62.56;96371.22;6245518;28;20409;-68
2023/07/04 01:32:08;;;;;;;;;;;;;;;17.63;62.37;96369.59;6227067;28;19921;-70
2023/07/04 01:35:13;;;;;;;;;;;;;;;17.66;62.34;96371.94;6245408;28;20513;-69
2023/07/04 01:38:17;;;;;;;;;;;;;;;17.71;62.30;96373.13;6244216;28;19964;-70
2023/07/04 01:41:24;;;;;;;;;;;;;;;17.79;62.04;96377.72;6244758;28;20416;-69
2023/07/04 01:44:25;;;;;;;;;;;;;;;17.87;62.33;96385.75;6244577;28;20393;-70
2023/07/04 01:47:28;;;;;;;;;;;;;;;17.94;62.65;96391.28;6245145;28;19921;-70
2023/07/04 01:50:34;;;;;;;;;;;;;;;18.03;62.38;96389.50;6245269;28;20472;-70
2023/07/04 01:53:37;;;;;;;;;;;;;;;18.14;62.23;96391.91;6245223;28;19921;-71
2023/07/04 01:56:40;;;;;;;;;;;;;;;18.21;61.97;96392.94;6245126;28;20394;-70
2023/07/04 01:59:45;;;;;;;;;;;;;;;18.32;62.06;96394.50;6245085;28;20043;-69
2023/07/04 02:02:46;;;;;;;;;;;;;;;18.44;61.39;96403.03;6244558;28;19921;-69
2023/07/04 02:05:47;;;;;;;;;;;;;;;18.56;61.47;96407.91;6244837;28;20316;-70
2023/07/04 02:08:53;;;;;;;;;;;;;;;18.73;60.52;96407.97;6243763;28;19927;-71
2023/07/04 02:11:54;;;;;;;;;;;;;;;18.90;60.30;96411.56;6226939;28;19921;-69
2023/07/04 02:14:55;;;;;;;;;;;;;;;19.08;60.10;96412.28;6244131;28;19933;-69
2023/07/04 02:17:59;;;;;;;;;;;;;;;19.27;60.20;96406.63;6244910;28;19944;-70
2023/07/04 02:21:06;;;;;;;;;;;;;;;19.45;59.76;96413.66;6244967;28;20003;-69
2023/07/04 02:24:07;;;;;;;;;;;;;;;19.55;59.47;96414.31;6244161;28;19917;-70
2023/07/04 02:27:11;;;;;;;;;;;;;;;19.65;59.36;96415.03;6244766;28;19921;-71
2023/07/04 02:30:14;;;;;;;;;;;;;;;19.82;59.09;96423.88;6244718;28;19928;-69
2023/07/04 02:33:16;;;;;;;;;;;;;;;19.95;58.69;96423.34;6248122;28;19954;-71
2023/07/04 02:36:21;;;;;;;;;;;;;;;20.03;58.29;96417.97;6231344;28;19944;-70
2023/07/04 02:39:26;;;;;;;;;;;;;;;20.25;57.84;96434.31;6248832;28;19920;-71
2023/07/04 02:42:30;;;;;;;;;;;;;;;20.29;57.48;96439.13;6230708;28;19928;-70
2023/07/04 02:45:37;;;;;;;;;;;;;;;20.35;57.53;96440.28;6248778;28;19921;-69
2023/07/04 02:48:40;;;;;;;;;;;;;;;20.46;57.35;96436.41;6248918;28;19932;-70
2023/07/04 02:51:41;;;;;;;;;;;;;;;20.67;56.89;96441.25;6248702;28;19921;-70
2023/07/04 02:54:44;;;;;;;;;;;;;;;20.80;56.45;96446.84;6248918;28;19920;-70
2023/07/04 02:57:46;;;;;;;;;;;;;;;20.86;56.15;96446.16;6248752;28;20010;-70
2023/07/04 03:00:52;;;;;;;;;;;;;;;20.95;56.23;96449.66;6230947;28;19921;-70
2023/07/04 03:03:57;;;;;;;;;;;;;;;21.05;55.95;96451.06;6230446;28;19921;-69
2023/07/04 03:06:58;;;;;;;;;;;;;;;21.20;55.58;96453.00;6248448;28;19920;-70
2023/07/04 03:09:59;;;;;;;;;;;;;;;21.27;55.43;96459.31;6248156;28;19920;-71
2023/07/04 03:13:03;;;;;;;;;;;;;;;21.44;54.96;96455.56;6247489;28;19921;-69
2023/07/04 03:16:04;;;;;;;;;;;;;;;21.51;54.84;96461.88;6247734;28;19933;-70
2023/07/04 03:19:05;;;;;;;;;;;;;;;21.62;54.79;96460.63;6247120;28;19924;-70
2023/07/04 03:22:07;;;;;;;;;;;;;;;21.74;54.48;96458.38;6247520;28;20455;-70
2023/07/04 03:25:08;;;;;;;;;;;;;;;21.82;54.23;96465.50;6230048;28;19939;-70
2023/07/04 03:28:11;;;;;;;;;;;;;;;21.75;54.54;96463.53;6246988;28;20337;-70
2023/07/04 03:31:13;;;;;;;;;;;;;;;21.84;54.26;96466.97;6246985;28;19921;-70
2023/07/04 03:34:16;;;;;;;;;;;;;;;21.88;54.31;96457.59;6247110;28;19956;-70
2023/07/04 03:37:17;;;;;;;;;;;;;;;22.04;53.93;96466.50;6247033;28;19980;-70
2023/07/04 03:40:18;;;;;;;;;;;;;;;22.14;53.74;96462.53;6247505;28;19921;-68
2023/07/04 03:43:28;;;;;;;;;;;;;;;22.19;53.46;96467.38;6247122;28;19921;-71
2023/07/04 03:46:31;;;;;;;;;;;;;;;22.38;52.56;96468.69;6247580;28;19917;-70
2023/07/04 03:49:32;;;;;;;;;;;;;;;22.50;52.03;96461.03;6246319;28;19921;-70
2023/07/04 03:52:34;;;;;;;;;;;;;;;22.59;51.63;96467.97;6246857;28;20027;-69
2023/07/04 03:55:36;;;;;;;;;;;;;;;22.66;51.16;96471.59;6246388;28;19927;-69
2023/07/04 03:58:40;;;;;;;;;;;;;;;22.76;50.94;96471.28;6229127;28;19925;-70
2023/07/04 04:01:41;;;;;;;;;;;;;;;22.86;50.79;96467.31;6246417;28;19920;-70
2023/07/04 04:04:42;;;;;;;;;;;;;;;22.94;50.65;96468.25;6246941;28;20063;-71
2023/07/04 04:07:45;;;;;;;;;;;;;;;23.07;50.49;96474.66;6246839;28;19924;-69
2023/07/04 04:10:46;;;;;;;;;;;;;;;23.27;49.80;96472.22;6246176;28;20327;-70
2023/07/04 04:13:47;;;;;;;;;;;;;;;23.37;49.59;96479.13;6246020;28;19991;-70
2023/07/04 04:16:50;;;;;;;;;;;;;;;23.51;49.51;96481.75;6246914;28;19921;-69
2023/07/04 04:19:54;;;;;;;;;;;;;;;23.62;49.25;96480.44;6245913;28;19983;-70
2023/07/04 04:22:58;;;;;;;;;;;;;;;23.70;49.10;96479.47;6246845;28;20338;-71
2023/07/04 04:26:03;;;;;;;;;;;;;;;23.80;48.88;96480.00;6245739;28;19928;-70
2023/07/04 04:29:07;;;;;;;;;;;;;;;23.80;49.12;96492.63;6245578;28;20310;-71
2023/07/04 04:32:11;;;;;;;;;;;;;;;23.86;49.03;96492.66;6245253;28;19940;-71
2023/07/04 04:35:14;;;;;;;;;;;;;;;24.01;49.04;96487.25;6229274;28;19920;-70
2023/07/04 04:38:17;;;;;;;;;;;;;;;24.05;48.96;96488.50;6246254;28;20294;-69
2023/07/04 04:41:19;;;;;;;;;;;;;;;24.22;48.29;96488.25;6245323;28;20445;-70
2023/07/04 04:44:26;;;;;;;;;;;;;;;24.39;47.57;96489.59;6246164;28;19917;-72
2023/07/04 04:47:33;;;;;;;;;;;;;;;24.54;47.06;96485.00;6245363;28;19927;-71
2023/07/04 04:50:36;;;;;;;;;;;;;;;26.35;43.95;96489.97;6246082;28;19917;-71
2023/07/04 04:53:44;;;;;;;;;;;;;;;29.15;39.04;96489.28;6245363;28;19921;-71
2023/07/04 04:56:48;;;;;;;;;;;;;;;31.69;34.21;96493.94;6244814;28;19921;-72
2023/07/04 05:00:07;;;;;;;;;;;;;;;33.82;31.35;96493.94;6245653;28;19920;-70
2023/07/04 05:03:13;;;;;;;;;;;;;;;36.37;28.09;96504.81;6244921;28;20394;-71
2023/07/04 05:06:23;;;;;;;;;;;;;;;38.57;25.93;96504.91;6229163;28;19921;-70
2023/07/04 05:09:28;;;;;;;;;;;;;;;40.87;24.10;96514.16;6245381;28;19927;-71
2023/07/04 05:12:31;;;;;;;;;;;;;;;43.04;21.16;96510.88;6245658;28;19925;-70
2023/07/04 05:15:34;;;;;;;;;;;;;;;44.46;17.99;96507.88;6245746;28;20445;-71
2023/07/04 05:18:38;;;;;;;;;;;;;;;45.63;17.52;96513.31;6244388;28;20512;-70
2023/07/04 05:21:42;;;;;;;;;;;;;;;46.51;16.57;96508.78;6245318;28;19975;-70
2023/07/04 05:24:45;;;;;;;;;;;;;;;47.82;16.01;96513.78;6245465;28;19923;-70
2023/07/04 05:27:50;;;;;;;;;;;;;;;49.49;16.14;96516.13;6245236;28;20027;-71
2023/07/04 05:31:00;;;;;;;;;;;;;;;50.73;14.19;96512.59;6245383;28;19920;-70
2023/07/04 05:34:03;;;;;;;;;;;;;;;51.83;13.37;96509.31;6227356;28;19920;-71
2023/07/04 05:37:06;;;;;;;;;;;;;;;52.76;13.25;96507.81;6227718;28;20416;-72
2023/07/04 05:40:10;;;;;;;;;;;;;;;53.68;12.50;96517.56;6244928;28;20271;-71
2023/07/04 05:43:13;;;;;;;;;;;;;;;53.89;11.57;96514.91;6245000;28;19927;-71
2023/07/04 05:46:16;;;;;;;;;;;;;;;53.93;12.47;96509.28;6244992;28;19943;-72
2023/07/04 05:49:21;;;;;;;;;;;;;;;54.12;10.54;96523.09;6243777;28;19990;-70
2023/07/04 05:52:24;;;;;;;;;;;;;;;53.82;10.86;96515.66;6245113;28;20457;-71
2023/07/04 05:55:27;;;;;;;;;;;;;;;53.58;10.98;96521.88;6227045;28;20412;-71
2023/07/04 05:58:31;;;;;;;;;;;;;;;53.42;11.49;96510.09;6244897;28;19927;-71
2023/07/04 06:01:37;;;;;;;;;;;;;;;53.75;11.22;96514.81;6227248;28;19967;-71
2023/07/04 06:04:39;;;;;;;;;;;;;;;54.97;10.09;96518.28;6245046;28;20318;-70
2023/07/04 06:07:44;;;;;;;;;;;;;;;55.57;9.96;96518.31;6249929;28;20015;-70
2023/07/04 06:11:02;;;;;;;;;;;;;;;56.08;9.23;96521.13;6249915;28;19927;-71
2023/07/04 06:14:07;;;;;;;;;;;;;;;55.83;9.23;96521.94;6249854;28;19927;-71
2023/07/04 06:17:11;;;;;;;;;;;;;;;55.76;9.52;96522.78;6232105;28;19967;-72
2023/07/04 06:20:14;;;;;;;;;;;;;;;56.09;9.38;96520.72;6249614;28;19974;-70
2023/07/04 06:23:18;;;;;;;;;;;;;;;56.58;8.05;96523.84;6216510;28;20067;-71
2023/07/04 06:26:22;;;;;;;;;;;;;;;56.91;9.31;96526.09;6255829;28;19948;-70
2023/07/04 06:29:31;;;;;;;;;;;;;;;57.62;8.43;96526.84;6277863;28;19897;-70
2023/07/04 06:32:37;;;;;;;;;;;;;;;57.20;8.95;96525.94;6279875;28;19901;-70
2023/07/04 06:35:42;;;;;;;;;;;;;;;57.04;8.30;96519.94;6280275;28;20468;-72
2023/07/04 06:38:45;;;;;;;;;;;;;;;54.53;9.97;96508.00;6232762;28;19927;-71
2023/07/04 06:41:50;;;;;;;;;;;;;;;54.63;8.97;96507.25;6249246;28;20460;-71
2023/07/04 06:44:54;;;;;;;;;;;;;;;55.59;9.13;96518.75;6249065;28;20019;-72
2023/07/04 06:47:57;;;;;;;;;;;;;;;56.76;8.52;96516.03;6248380;28;20007;-71
2023/07/04 06:51:02;;;;;;;;;;;;;;;54.00;9.58;96506.56;6249059;28;19920;-71
2023/07/04 06:54:05;;;;;;;;;;;;;;;50.71;10.80;96502.94;6231019;28;19921;-71
2023/07/04 06:57:08;;;;;;;;;;;;;;;50.37;10.88;96499.00;6248614;28;20349;-70
2023/07/04 07:00:11;;;;;;;;;;;;;;;51.59;10.24;96500.13;6248580;28;19924;-70
2023/07/04 07:03:15;;;;;;;;;;;;;;;51.88;10.14;96500.59;6248531;28;19921;-71
2023/07/04 07:06:18;;;;;;;;;;;;;;;50.15;11.25;96489.34;6248361;28;20011;-71
2023/07/04 07:09:22;;;;;;;;;;;;;;;49.56;11.59;96477.16;6248396;28;20580;-70
2023/07/04 07:12:25;;;;;;;;;;;;;;;50.06;11.48;96486.75;6248016;28;19921;-71
2023/07/04 07:15:28;;;;;;;;;;;;;;;47.51;12.70;96481.69;6248354;28;20019;-71
2023/07/04 07:18:33;;;;;;;;;;;;;;;49.03;12.55;96479.41;6247621;28;19921;-71
2023/07/04 07:21:37;;;;;;;;;;;;;;;52.70;10.13;96484.06;6248007;28;19921;-70
2023/07/04 07:24:40;;;;;;;;;;;;;;;54.74;9.62;96491.22;6248129;28;20375;-71
2023/07/04 07:27:44;;;;;;;;;;;;;;;56.36;8.56;96498.47;6247991;28;20438;-72
2023/07/04 07:30:46;;;;;;;;;;;;;;;58.50;7.99;96502.91;6246582;28;20012;-71
2023/07/04 07:33:51;;;;;;;;;;;;;;;60.06;7.44;96529.28;6272063;28;19921;-70
2023/07/04 07:36:56;;;;;;;;;;;;;;;60.21;7.26;96536.31;6260998;28;19917;-71
2023/07/04 07:40:00;;;;;;;;;;;;;;;60.26;7.41;96535.00;6275791;28;19921;-71
2023/07/04 07:43:05;;;;;;;;;;;;;;;60.43;6.38;96531.00;6274736;28;19920;-71
2023/07/04 07:46:17;;;;;;;;;;;;;;;59.94;7.13;96528.69;6261747;28;19929;-71
2023/07/04 07:49:23;;;;;;;;;;;;;;;58.45;6.68;96515.50;6259327;28;20171;-71
2023/07/04 07:52:27;;;;;;;;;;;;;;;55.12;8.67;96512.25;6250881;28;19920;-71
2023/07/04 07:55:31;;;;;;;;;;;;;;;55.40;8.35;96502.22;6229804;28;20371;-71
2023/07/04 07:58:35;;;;;;;;;;;;;;;57.01;8.13;96510.28;6247396;28;20011;-70
2023/07/04 08:01:38;;;;;;;;;;;;;;;57.71;7.25;96517.84;6247499;28;20019;-71
2023/07/04 08:04:41;;;;;;;;;;;;;;;58.39;7.20;96517.19;6247224;28;19927;-71
2023/07/04 08:07:45;;;;;;;;;;;;;;;58.84;6.62;96508.53;6252626;28;19952;-71
2023/07/04 08:10:47;;;;;;;;;;;;;;;57.26;6.73;96490.31;6247447;28;20023;-71
2023/07/04 08:13:50;;;;;;;;;;;;;;;54.91;7.94;96495.28;6247157;28;20019;-71
2023/07/04 08:16:53;;;;;;;;;;;;;;;54.31;7.98;96484.59;6246816;28;20019;-70
2023/07/04 08:19:56;;;;;;;;;;;;;;;50.81;9.95;96467.91;6246821;28;19927;-72
2023/07/04 08:23:00;;;;;;;;;;;;;;;50.82;10.09;96472.31;6246777;28;19921;-71
2023/07/04 08:26:04;;;;;;;;;;;;;;;52.21;9.33;96471.00;6247099;28;19921;-71
2023/07/04 08:29:07;;;;;;;;;;;;;;;51.21;9.68;96471.03;6245886;28;19928;-72
2023/07/04 08:32:10;;;;;;;;;;;;;;;50.04;10.11;96466.72;6246499;28;20019;-72
2023/07/04 08:35:14;;;;;;;;;;;;;;;51.75;9.29;96473.94;6244801;28;19928;-71
2023/07/04 08:38:16;;;;;;;;;;;;;;;53.36;8.16;96476.69;6246217;28;20016;-71
2023/07/04 08:41:38;;;;;;;;;;;;;;;53.34;7.97;96481.94;6245045;28;20019;-72
2023/07/04 08:44:43;;;;;;;;;;;;;;;52.97;8.09;96467.88;6246611;28;19921;-71
2023/07/04 08:47:45;;;;;;;;;;;;;;;52.67;8.12;96473.56;6245778;28;19928;-71
2023/07/04 08:50:48;;;;;;;;;;;;;;;52.05;8.55;96466.38;6246017;28;19928;-71
2023/07/04 08:53:54;;;;;;;;;;;;;;;51.69;8.60;96476.25;6245902;28;19963;-73
2023/07/04 08:56:58;;;;;;;;;;;;;;;51.39;9.07;96468.56;6245886;28;20302;-72
2023/07/04 09:00:20;;;;;;;;;;;;;;;53.27;8.30;96472.59;6245777;28;20018;-72
2023/07/04 09:03:52;;;;;;;;;;;;;;;54.61;8.12;96476.66;6227750;28;19921;-71
2023/07/04 09:07:09;;;;;;;;;;;;;;;54.83;7.47;96482.38;6232907;28;19920;-72
2023/07/04 09:10:24;;;;;;;;;;;;;;;54.98;7.44;96475.56;6245666;28;20318;-71
2023/07/04 09:13:38;;;;;;;;;;;;;;;54.69;7.84;96481.13;6245741;28;19921;-72
2023/07/04 09:16:42;;;;;;;;;;;;;;;54.46;7.68;96475.00;6228003;28;19927;-71
2023/07/04 09:19:46;;;;;;;;;;;;;;;54.65;7.90;96468.25;6245482;28;20015;-71
2023/07/04 09:22:48;;;;;;;;;;;;;;;54.92;7.89;96468.69;6227849;28;19928;-71
2023/07/04 09:25:52;;;;;;;;;;;;;;;55.01;7.47;96466.34;6227663;28;19967;-71
2023/07/04 09:28:57;;;;;;;;;;;;;;;54.88;7.49;96468.69;6245178;28;20019;-71
2023/07/04 09:32:00;;;;;;;;;;;;;;;54.48;7.91;96462.13;6243933;28;19963;-72
2023/07/04 09:35:05;;;;;;;;;;;;;;;54.65;7.95;96457.78;6244942;28;19947;-72
2023/07/04 09:38:08;;;;;;;;;;;;;;;54.63;7.15;96451.72;6245412;28;19924;-71
2023/07/04 09:41:13;;;;;;;;;;;;;;;53.79;7.80;96451.72;6235265;28;19928;-71
2023/07/04 09:44:17;;;;;;;;;;;;;;;52.79;7.78;96447.22;6203179;28;19921;-71
2023/07/04 09:47:27;;;;;;;;;;;;;;;51.21;8.86;96445.81;6220741;28;19921;-71
2023/07/04 09:50:32;;;;;;;;;;;;;;;49.85;9.33;96440.31;6203443;28;20396;-72
2023/07/04 09:53:35;;;;;;;;;;;;;;;49.82;9.45;96443.03;6220485;28;19921;-71
2023/07/04 09:56:39;;;;;;;;;;;;;;;50.23;9.10;96440.75;6203118;28;20019;-71
2023/07/04 09:59:42;;;;;;;;;;;;;;;49.50;9.48;96436.69;6220394;28;20405;-71
2023/07/04 10:02:46;;;;;;;;;;;;;;;49.37;9.58;96439.56;6220389;28;20039;-72
2023/07/04 10:05:49;;;;;;;;;;;;;;;49.72;9.36;96429.63;6220238;28;19979;-72
2023/07/04 10:08:53;;;;;;;;;;;;;;;50.37;9.27;96437.44;6202801;28;19964;-71
2023/07/04 10:12:12;;;;;;;;;;;;;;;49.99;9.20;96428.66;6202563;28;20068;-71
2023/07/04 10:15:26;;;;;;;;;;;;;;;48.48;10.07;96421.28;6220369;28;20007;-72
2023/07/04 10:18:30;;;;;;;;;;;;;;;47.97;10.59;96412.63;6220210;28;20061;-73
2023/07/04 10:21:40;;;;;;;;;;;;;;;47.08;11.15;96413.41;6220241;28;19921;-71
2023/07/04 10:24:44;;;;;;;;;;;;;;;46.28;11.67;96411.78;6220319;28;19967;-71
2023/07/04 10:27:49;;;;;;;;;;;;;;;45.63;12.39;96416.03;6220547;28;20397;-71
2023/07/04 10:30:56;;;;;;;;;;;;;;;44.80;13.11;96409.88;6220263;28;19921;-71
2023/07/04 10:34:02;;;;;;;;;;;;;;;44.10;13.44;96409.16;6220158;28;20187;-70
2023/07/04 10:37:06;;;;;;;;;;;;;;;43.94;13.57;96416.34;6202670;28;20028;-71
2023/07/04 10:40:11;;;;;;;;;;;;;;;43.78;13.94;96406.88;6235845;28;20348;-72
2023/07/04 10:43:19;;;;;;;;;;;;;;;44.04;13.56;96415.22;6226939;28;19956;-71
2023/07/04 10:46:24;;;;;;;;;;;;;;;44.50;12.80;96410.91;6244586;28;19920;-71
2023/07/04 10:49:30;;;;;;;;;;;;;;;44.17;13.06;96413.41;6244668;28;20457;-70
2023/07/04 10:52:34;;;;;;;;;;;;;;;43.85;13.52;96410.78;6246031;28;20007;-72
2023/07/04 10:55:43;;;;;;;;;;;;;;;43.68;13.74;96408.00;6248594;28;19928;-72
2023/07/04 10:58:48;;;;;;;;;;;;;;;43.74;13.62;96405.88;6230737;28;19921;-71
2023/07/04 11:01:52;;;;;;;;;;;;;;;43.81;13.77;96417.31;6248396;28;19978;-71
2023/07/04 11:05:06;;;;;;;;;;;;;;;43.19;13.93;96412.75;6248496;28;19931;-71
2023/07/04 11:08:14;;;;;;;;;;;;;;;41.82;15.17;96415.13;6248609;28;19916;-71
2023/07/04 11:11:24;;;;;;;;;;;;;;;41.32;15.62;96406.78;6248364;28;20310;-71
2023/07/04 11:14:26;;;;;;;;;;;;;;;41.06;15.97;96410.91;6248010;28;20104;-71
2023/07/04 11:17:34;;;;;;;;;;;;;;;40.63;16.03;96417.81;6248372;28;19924;-71
2023/07/04 11:20:38;;;;;;;;;;;;;;;40.23;16.47;96425.59;6247455;28;20405;-71
2023/07/04 11:23:49;;;;;;;;;;;;;;;38.90;17.94;96421.84;6247258;28;20395;-71
2023/07/04 11:27:01;;;;;;;;;;;;;;;37.84;19.16;96417.75;6248129;28;20310;-70
2023/07/04 11:30:28;;;;;;;;;;;;;;;36.89;20.21;96423.38;6248017;28;19921;-71
2023/07/04 11:33:58;;;;;;;;;;;;;;;35.89;21.32;96422.03;6247983;28;20351;-72
2023/07/04 11:37:04;;;;;;;;;;;;;;;34.70;22.70;96422.63;6241877;28;19921;-71
2023/07/04 11:40:37;;;;;;;;;;;;;;;34.13;22.83;96423.31;6221752;28;20391;-71
2023/07/04 11:43:43;;;;;;;;;;;;;;;35.14;21.97;96433.28;6209685;28;19929;-71
2023/07/04 11:46:55;;;;;;;;;;;;;;;36.35;21.20;96436.59;6222858;28;19921;-71
2023/07/04 11:50:01;;;;;;;;;;;;;;;36.75;20.82;96434.13;6222942;28;19921;-71
2023/07/04 11:53:09;;;;;;;;;;;;;;;36.86;21.02;96436.56;6220682;28;19921;-70
2023/07/04 11:56:18;;;;;;;;;;;;;;;36.20;22.06;96429.19;6222858;28;19925;-71
2023/07/04 11:59:23;;;;;;;;;;;;;;;36.11;22.15;96425.38;6222873;28;20314;-72
2023/07/04 12:02:30;;;;;;;;;;;;;;;36.78;22.15;96428.06;6222150;28;20342;-72
2023/07/04 12:05:32;;;;;;;;;;;;;;;37.44;21.76;96435.25;6222117;28;20052;-70
2023/07/04 12:08:41;;;;;;;;;;;;;;;37.91;21.23;96444.91;6222353;28;20383;-72
2023/07/04 12:11:44;;;;;;;;;;;;;;;37.91;21.46;96439.41;6222167;28;19928;-72
2023/07/04 12:14:56;;;;;;;;;;;;;;;37.44;21.43;96430.59;6222056;28;19921;-72
2023/07/04 12:18:12;;;;;;;;;;;;;;;37.36;21.42;96428.44;6221867;28;20350;-71
2023/07/04 12:21:18;;;;;;;;;;;;;;;37.78;21.85;96427.13;6220439;28;19922;-71
2023/07/04 12:24:20;;;;;;;;;;;;;;;38.23;20.99;96433.44;6222049;28;20296;-71
2023/07/04 12:27:26;;;;;;;;;;;;;;;38.50;21.18;96440.38;6204721;28;20450;-70
2023/07/04 12:30:32;;;;;;;;;;;;;;;38.27;21.40;96426.25;6221902;28;20387;-72
2023/07/04 12:33:45;;;;;;;;;;;;;;;37.54;21.86;96443.50;6222042;28;20311;-71
2023/07/04 12:36:50;;;;;;;;;;;;;;;36.12;23.08;96446.19;6222221;28;19922;-75
2023/07/04 12:39:53;;;;;;;;;;;;;;;35.13;24.29;96437.09;6235674;28;19921;-71
2023/07/04 12:43:03;;;;;;;;;;;;;;;34.11;25.40;96441.84;6246360;28;19920;-71
2023/07/04 12:46:14;;;;;;;;;;;;;;;32.96;26.30;96442.69;6246407;28;19920;-72
2023/07/04 12:49:20;;;;;;;;;;;;;;;32.09;27.36;96444.06;6246294;28;19920;-71
2023/07/04 12:52:29;;;;;;;;;;;;;;;31.67;28.03;96443.56;6245889;28;19921;-71
2023/07/04 12:55:36;;;;;;;;;;;;;;;31.20;28.36;96441.84;6245825;28;20310;-71
2023/07/04 12:58:40;;;;;;;;;;;;;;;30.85;29.41;96444.63;6245968;28;19921;-70
2023/07/04 13:01:41;;;;;;;;;;;;;;;30.49;29.84;96448.38;6245251;28;20016;-71
2023/07/04 13:04:46;;;;;;;;;;;;;;;30.29;30.56;96449.56;6245429;28;19921;-71
2023/07/04 13:07:50;;;;;;;;;;;;;;;30.09;29.29;96446.31;6245304;28;19929;-70
2023/07/04 13:10:54;;;;;;;;;;;;;;;29.97;29.63;96449.81;6245226;28;19920;-71
2023/07/04 13:14:05;;;;;;;;;;;;;;;29.82;29.30;96445.91;6245075;28;19921;-71
2023/07/04 13:17:11;;;;;;;;;;;;;;;29.76;29.78;96444.97;6245224;28;20326;-71
2023/07/04 13:20:15;;;;;;;;;;;;;;;29.72;30.40;96447.31;6245440;28;20302;-72
2023/07/04 13:23:21;;;;;;;;;;;;;;;29.82;29.57;96441.31;6244418;28;19927;-71
2023/07/04 13:26:25;;;;;;;;;;;;;;;30.04;29.96;96448.91;6244388;28;19932;-72
2023/07/04 13:29:27;;;;;;;;;;;;;;;30.25;29.76;96445.66;6244157;28;19939;-71
2023/07/04 13:32:34;;;;;;;;;;;;;;;30.52;29.47;96450.66;6244172;28;19921;-72
2023/07/04 13:35:39;;;;;;;;;;;;;;;30.54;29.58;96453.94;6245078;28;19921;-72
2023/07/04 13:38:41;;;;;;;;;;;;;;;30.50;30.54;96447.34;6244990;28;19921;-72
2023/07/04 13:41:45;;;;;;;;;;;;;;;30.45;30.79;96441.78;6244947;28;19925;-71
2023/07/04 13:44:49;;;;;;;;;;;;;;;30.36;31.27;96446.75;6244307;28;19936;-72
2023/07/04 13:47:50;;;;;;;;;;;;;;;30.29;31.84;96446.88;6243492;28;19925;-71
2023/07/04 13:50:55;;;;;;;;;;;;;;;30.25;32.24;96448.38;6244729;28;19921;-72
2023/07/04 13:54:01;;;;;;;;;;;;;;;30.08;32.74;96455.53;6244559;28;20391;-72
2023/07/04 13:57:02;;;;;;;;;;;;;;;29.99;32.89;96455.03;6245024;28;20298;-72
2023/07/04 14:00:05;;;;;;;;;;;;;;;29.97;32.62;96460.69;6227232;28;19928;-71
2023/07/04 14:03:07;;;;;;;;;;;;;;;29.99;33.27;96458.56;6244908;28;19921;-72
2023/07/04 14:06:14;;;;;;;;;;;;;;;30.12;33.42;96452.13;6244672;28;20031;-72
2023/07/04 14:09:15;;;;;;;;;;;;;;;30.05;33.73;96454.09;6244722;28;19921;-70
2023/07/04 14:12:18;;;;;;;;;;;;;;;29.92;33.57;96455.16;6244649;28;19928;-72
2023/07/04 14:15:22;;;;;;;;;;;;;;;29.96;33.19;96450.91;6244191;28;19936;-72
2023/07/04 14:18:28;;;;;;;;;;;;;;;30.23;33.46;96460.53;6244519;28;19921;-71
2023/07/04 14:21:32;;;;;;;;;;;;;;;30.45;33.04;96461.59;6244597;28;19921;-72
2023/07/04 14:24:33;;;;;;;;;;;;;;;30.64;32.74;96460.44;6243998;28;19929;-72
2023/07/04 14:27:38;;;;;;;;;;;;;;;30.85;32.23;96472.59;6248318;28;19921;-71
2023/07/04 14:30:43;;;;;;;;;;;;;;;30.97;31.87;96469.03;6248409;28;19921;-73
2023/07/04 14:33:44;;;;;;;;;;;;;;;31.18;31.77;96471.16;6248869;28;19921;-73
2023/07/04 14:36:48;;;;;;;;;;;;;;;31.17;31.77;96480.38;6249158;28;19983;-72
2023/07/04 14:39:54;;;;;;;;;;;;;;;31.23;32.02;96479.41;6223182;28;20371;-72
2023/07/04 14:42:55;;;;;;;;;;;;;;;31.17;32.64;96480.38;6222687;28;19928;-73
2023/07/04 14:46:02;;;;;;;;;;;;;;;30.87;32.57;96473.19;6224188;28;20298;-72
2023/07/04 14:49:05;;;;;;;;;;;;;;;30.67;32.74;96475.44;6224366;28;19921;-72
2023/07/04 14:52:09;;;;;;;;;;;;;;;30.37;33.40;96481.78;6223161;28;19921;-73
2023/07/04 14:55:14;;;;;;;;;;;;;;;30.17;33.66;96478.53;6223512;28;20361;-72
2023/07/04 14:58:18;;;;;;;;;;;;;;;29.87;34.09;96476.72;6223810;28;20399;-71
2023/07/04 15:01:22;;;;;;;;;;;;;;;29.48;34.50;96489.72;6224132;28;19922;-72
2023/07/04 15:04:25;;;;;;;;;;;;;;;29.12;35.19;96490.56;6223994;28;20426;-72
2023/07/04 15:07:31;;;;;;;;;;;;;;;28.84;36.26;96504.59;6224062;28;19921;-72
2023/07/04 15:10:35;;;;;;;;;;;;;;;28.44;36.52;96504.97;6223891;28;19925;-73
2023/07/04 15:13:38;;;;;;;;;;;;;;;28.17;37.27;96504.34;6223459;28;19921;-72
2023/07/04 15:16:45;;;;;;;;;;;;;;;28.02;37.42;96507.34;6223830;28;19921;-71
2023/07/04 15:19:48;;;;;;;;;;;;;;;27.88;37.20;96511.19;6223715;28;20299;-71
2023/07/04 15:22:49;;;;;;;;;;;;;;;27.85;37.15;96511.63;6223495;28;19980;-71
2023/07/04 15:25:54;;;;;;;;;;;;;;;27.96;36.41;96508.22;6223352;28;19925;-71
2023/07/04 15:28:55;;;;;;;;;;;;;;;28.15;36.43;96512.66;6221945;28;19921;-70
2023/07/04 15:31:58;;;;;;;;;;;;;;;28.38;35.72;96511.25;6223633;28;19927;-71
2023/07/04 15:34:59;;;;;;;;;;;;;;;28.47;35.31;96514.53;6223319;28;19932;-71
2023/07/04 15:38:08;;;;;;;;;;;;;;;28.38;35.65;96513.94;6222491;28;19941;-72
2023/07/04 15:41:10;;;;;;;;;;;;;;;28.26;35.63;96510.31;6221362;28;19944;-73
2023/07/04 15:44:16;;;;;;;;;;;;;;;28.10;35.92;96515.19;6223177;28;19925;-72
2023/07/04 15:47:19;;;;;;;;;;;;;;;28.06;35.81;96519.41;6223005;28;20388;-72
2023/07/04 15:50:23;;;;;;;;;;;;;;;28.07;35.38;96521.03;6222980;28;19921;-71
2023/07/04 15:53:30;;;;;;;;;;;;;;;28.08;35.65;96528.13;6222868;28;20027;-71
2023/07/04 15:56:35;;;;;;;;;;;;;;;28.02;35.73;96533.56;6222605;28;19972;-71
2023/07/04 15:59:39;;;;;;;;;;;;;;;27.86;35.91;96540.31;6222240;28;19922;-71
2023/07/04 16:02:42;;;;;;;;;;;;;;;27.67;35.61;96542.88;6222291;28;19921;-71
2023/07/04 16:05:45;;;;;;;;;;;;;;;27.51;35.91;96543.34;6222501;28;19929;-70